Time;durP1;ratioP1;P1;durP2;ratioP2;P2;SDS_P1;SDS_P2;PMS_P1;PMS_P2;Temp;Humidity;BMP_temperature;BMP_pressure;BME280_temperature;BME280_humidity;BME280_pressure;Samples;Min_cycle;Max_cycle;Signal;HPM_P1;HPM_P2
2022/09/16 00:01:09;;;;;;;2.30;1.00;;;22.00;73.10;;;;;;5092140;28;20081;-68
2022/09/16 00:03:35;;;;;;;3.40;1.00;;;22.00;73.10;;;;;;5070312;28;20534;-68
2022/09/16 00:06:00;;;;;;;2.05;1.33;;;22.00;73.10;;;;;;5070845;28;20025;-68
2022/09/16 00:08:26;;;;;;;1.77;0.82;;;22.00;73.10;;;;;;5071515;28;20032;-68
2022/09/16 00:10:52;;;;;;;3.92;1.15;;;22.00;73.10;;;;;;5110467;28;20081;-68
2022/09/16 00:13:17;;;;;;;1.80;1.20;;;22.00;73.10;;;;;;5113590;28;20071;-68
2022/09/16 00:15:44;;;;;;;4.68;1.02;;;22.00;73.00;;;;;;5114745;28;20024;-68
2022/09/16 00:18:10;;;;;;;2.25;1.10;;;22.00;73.00;;;;;;5114686;28;20019;-68
2022/09/16 00:20:41;;;;;;;1.20;1.02;;;22.00;73.00;;;;;;5114447;28;20020;-68
2022/09/16 00:23:06;;;;;;;2.47;1.17;;;22.00;73.00;;;;;;5115616;28;20404;-68
2022/09/16 00:25:32;;;;;;;3.38;1.00;;;22.00;72.90;;;;;;5113938;28;20027;-67
2022/09/16 00:27:58;;;;;;;3.13;1.20;;;22.00;72.90;;;;;;5095359;28;20034;-67
2022/09/16 00:30:24;;;;;;;1.60;0.93;;;22.10;73.00;;;;;;5095327;28;20020;-67
2022/09/16 00:32:49;;;;;;;4.15;1.40;;;22.00;73.00;;;;;;5093939;28;20370;-67
2022/09/16 00:35:15;;;;;;;1.23;0.77;;;22.00;72.90;;;;;;5095123;28;20388;-67
2022/09/16 00:37:40;;;;;;;3.05;1.33;;;22.00;72.90;;;;;;5094899;28;20020;-67
2022/09/16 00:40:06;;;;;;;1.90;1.02;;;22.00;72.90;;;;;;5095245;28;20039;-67
2022/09/16 00:42:39;;;;;;;6.65;1.52;;;22.00;72.90;;;;;;5095142;28;20020;-67
2022/09/16 00:45:30;;;;;;;;;;;22.00;72.90;;;;;;5095448;28;20478;-67
2022/09/16 00:48:05;;;;;;;3.35;1.08;;;22.00;72.80;;;;;;5093449;28;19904;-68
2022/09/16 00:50:44;;;;;;;2.83;0.98;;;22.00;72.90;;;;;;5073104;28;20130;-68
2022/09/16 00:53:22;;;;;;;3.97;1.05;;;22.00;72.80;;;;;;5074686;28;20024;-68
2022/09/16 00:55:47;;;;;;;2.70;0.90;;;22.00;72.80;;;;;;5056984;28;20035;-67
2022/09/16 00:58:19;;;;;;;4.57;1.15;;;22.00;72.80;;;;;;5073240;28;20420;-68
2022/09/16 01:00:45;;;;;;;5.20;1.05;;;22.00;72.80;;;;;;5073386;28;20117;-67
2022/09/16 01:03:10;;;;;;;3.70;0.82;;;22.00;72.80;;;;;;5072788;28;20503;-67
2022/09/16 01:05:36;;;;;;;1.92;0.90;;;22.00;72.80;;;;;;5074213;28;20107;-67
2022/09/16 01:08:02;;;;;;;3.45;1.20;;;22.00;72.80;;;;;;5073386;28;20507;-68
2022/09/16 01:10:27;;;;;;;3.65;1.30;;;22.00;72.90;;;;;;5105959;28;20026;-67
2022/09/16 01:12:55;;;;;;;1.80;1.00;;;22.00;72.90;;;;;;5113715;28;20028;-68
2022/09/16 01:15:25;;;;;;;2.35;1.10;;;22.00;72.90;;;;;;5096797;28;20027;-68
2022/09/16 01:18:24;;;;;;;4.63;1.23;;;22.00;72.90;;;;;;5113511;28;20468;-67
2022/09/16 01:21:08;;;;;;;1.85;0.80;;;22.00;72.80;;;;;;5070151;27;20040;-67
2022/09/16 01:23:40;;;;;;;2.70;1.10;;;22.00;72.80;;;;;;5114535;28;20032;-67
2022/09/16 01:26:27;;;;;;;4.15;0.93;;;22.00;72.90;;;;;;5109079;28;20053;-68
2022/09/16 01:29:43;;;;;;;2.85;1.30;;;22.00;72.90;;;;;;5094235;28;20508;-67
2022/09/16 01:32:42;;;;;;;1.75;0.90;;;22.00;72.80;;;;;;5011653;28;20061;-68
2022/09/16 01:35:32;;;;;;;4.20;0.98;;;22.00;72.90;;;;;;4998100;28;20037;-68
2022/09/16 01:38:00;;;;;;;2.13;1.00;;;22.00;72.90;;;;;;5011971;28;20026;-67
2022/09/16 01:40:37;;;;;;;2.13;1.00;;;22.00;72.90;;;;;;5011679;28;20101;-68
2022/09/16 01:43:18;;;;;;;2.90;1.00;;;22.00;72.90;;;;;;4979890;28;20026;-67
2022/09/16 01:46:03;;;;;;;1.98;0.93;;;22.00;72.80;;;;;;5011383;28;20026;-68
2022/09/16 01:48:38;;;;;;;3.40;1.17;;;21.90;72.80;;;;;;4996323;28;20042;-67
2022/09/16 01:51:05;;;;;;;1.58;0.80;;;22.00;72.80;;;;;;4995284;28;20552;-68
2022/09/16 01:53:35;;;;;;;4.03;0.88;;;22.00;72.80;;;;;;4995338;28;20030;-67
2022/09/16 01:56:22;;;;;;;4.00;0.90;;;21.90;72.70;;;;;;4995460;28;20018;-68
2022/09/16 01:58:57;;;;;;;1.95;1.38;;;21.90;72.70;;;;;;5011362;28;20116;-68
2022/09/16 02:01:31;;;;;;;2.40;1.13;;;21.90;72.70;;;;;;5008902;28;20755;-68
2022/09/16 02:04:04;;;;;;;3.20;1.00;;;21.90;72.70;;;;;;4991517;28;20058;-67
2022/09/16 02:06:30;;;;;;;3.05;1.10;;;21.90;72.70;;;;;;5000991;28;20058;-67
2022/09/16 02:09:04;;;;;;;2.60;0.90;;;21.90;72.80;;;;;;5061300;28;20074;-68
2022/09/16 02:11:29;;;;;;;1.88;0.93;;;21.90;72.70;;;;;;5095640;28;20031;-67
2022/09/16 02:14:00;;;;;;;7.53;1.30;;;21.90;72.70;;;;;;5095438;28;20027;-67
2022/09/16 02:16:35;;;;;;;2.28;0.80;;;21.90;72.70;;;;;;5112243;28;20058;-67
2022/09/16 02:19:05;;;;;;;2.08;0.90;;;21.90;72.70;;;;;;5095489;28;20361;-67
2022/09/16 02:21:31;;;;;;;7.88;0.93;;;21.90;72.70;;;;;;5112276;28;20047;-67
2022/09/16 02:24:00;;;;;;;1.95;1.00;;;21.90;72.70;;;;;;5095376;28;20038;-67
2022/09/16 02:26:28;;;;;;;4.40;1.20;;;21.90;72.70;;;;;;5104400;28;20466;-67
2022/09/16 02:28:53;;;;;;;4.07;0.88;;;21.90;72.70;;;;;;5091582;28;20020;-68
2022/09/16 02:31:22;;;;;;;2.42;0.80;;;21.90;72.70;;;;;;5074680;28;20552;-68
2022/09/16 02:33:54;;;;;;;2.45;1.00;;;21.90;72.70;;;;;;5074935;28;20016;-67
2022/09/16 02:36:21;;;;;;;5.72;1.10;;;21.90;72.70;;;;;;5074285;28;20107;-67
2022/09/16 02:38:53;;;;;;;1.88;0.90;;;21.90;72.70;;;;;;5074617;28;20491;-67
2022/09/16 02:41:18;;;;;;;2.05;1.10;;;21.90;72.70;;;;;;5092880;28;20023;-67
2022/09/16 02:43:44;;;;;;;4.68;1.52;;;21.90;72.70;;;;;;5092467;28;20403;-68
2022/09/16 02:46:34;;;;;;;2.17;0.75;;;21.90;72.80;;;;;;5091696;28;20102;-68
2022/09/16 02:49:27;;;;;;;2.67;0.90;;;21.90;72.60;;;;;;5092470;28;20071;-67
2022/09/16 02:51:59;;;;;;;1.23;0.82;;;21.90;72.70;;;;;;5092446;28;20047;-68
2022/09/16 02:54:43;;;;;;;1.55;0.90;;;21.90;72.70;;;;;;5075185;28;20016;-67
2022/09/16 02:57:08;;;;;;;4.32;1.13;;;21.90;72.70;;;;;;5092380;28;20117;-67
2022/09/16 02:59:34;;;;;;;2.95;0.90;;;21.90;72.70;;;;;;5091330;28;20491;-68
2022/09/16 03:02:00;;;;;;;1.98;0.80;;;21.90;72.70;;;;;;5084596;28;20046;-67
2022/09/16 03:04:26;;;;;;;4.05;1.30;;;21.90;72.70;;;;;;5072190;28;20027;-67
2022/09/16 03:06:51;;;;;;;3.40;1.00;;;21.90;72.70;;;;;;5054373;28;20032;-68
2022/09/16 03:09:17;;;;;;;0.90;0.75;;;21.90;72.70;;;;;;5083244;28;20069;-68
2022/09/16 03:12:01;;;;;;;4.40;0.93;;;21.90;72.60;;;;;;5111390;28;20492;-67
2022/09/16 03:14:55;;;;;;;2.97;0.90;;;21.90;72.60;;;;;;5112649;28;20020;-68
2022/09/16 03:17:27;;;;;;;3.58;1.10;;;21.90;72.60;;;;;;5112693;28;20026;-67
2022/09/16 03:20:06;;;;;;;3.30;1.02;;;21.90;72.60;;;;;;5112576;28;20019;-67
2022/09/16 03:22:53;;;;;;;2.35;0.82;;;21.90;72.60;;;;;;5111596;28;20020;-67
2022/09/16 03:25:50;;;;;;;2.80;0.77;;;21.90;72.60;;;;;;5111510;28;20364;-68
2022/09/16 03:28:18;;;;;;;1.77;1.00;;;21.90;72.60;;;;;;5070954;28;20060;-68
2022/09/16 03:31:05;;;;;;;2.40;0.90;;;21.90;72.50;;;;;;5070889;28;20028;-67
2022/09/16 03:33:42;;;;;;;1.55;0.77;;;21.90;72.50;;;;;;5070848;28;20078;-68
2022/09/16 03:36:08;;;;;;;2.13;1.10;;;21.90;72.50;;;;;;5070803;28;20096;-68
2022/09/16 03:38:34;;;;;;;3.60;1.15;;;21.90;72.50;;;;;;5070826;28;20056;-68
2022/09/16 03:41:01;;;;;;;3.70;1.38;;;21.90;72.50;;;;;;5070456;28;20089;-68
2022/09/16 03:43:27;;;;;;;6.47;0.90;;;21.90;72.50;;;;;;5071048;28;20494;-67
2022/09/16 03:45:53;;;;;;;5.95;0.82;;;21.90;72.30;;;;;;5071890;28;20028;-67
2022/09/16 03:48:18;;;;;;;4.95;1.23;;;21.90;72.30;;;;;;5073291;28;20029;-68
2022/09/16 03:50:44;;;;;;;5.10;1.10;;;21.90;72.40;;;;;;5075720;28;20388;-68
2022/09/16 03:53:10;;;;;;;1.35;0.90;;;21.90;72.40;;;;;;5075733;28;20021;-67
2022/09/16 03:55:36;;;;;;;2.72;0.90;;;21.90;73.40;;;;;;5074147;28;20085;-67
2022/09/16 03:58:01;;;;;;;3.10;1.20;;;21.80;72.40;;;;;;5075649;28;20099;-67
2022/09/16 04:00:28;;;;;;;3.60;1.00;;;21.90;72.50;;;;;;5075989;28;20122;-67
2022/09/16 04:02:53;;;;;;;3.50;0.93;;;21.90;72.40;;;;;;5075366;28;20156;-67
2022/09/16 04:05:19;;;;;;;2.85;0.85;;;21.90;72.50;;;;;;5075376;28;20101;-67
2022/09/16 04:07:47;;;;;;;4.07;0.98;;;21.90;72.40;;;;;;5075355;28;20024;-67
2022/09/16 04:10:13;;;;;;;2.33;1.25;;;21.90;72.50;;;;;;5103031;28;20019;-67
2022/09/16 04:12:38;;;;;;;2.67;1.10;;;21.80;72.40;;;;;;5116107;27;20035;-67
2022/09/16 04:15:04;;;;;;;2.65;1.20;;;21.80;72.40;;;;;;5114715;28;20023;-67
2022/09/16 04:17:31;;;;;;;1.77;1.05;;;21.90;72.50;;;;;;5114746;28;20019;-67
2022/09/16 04:19:57;;;;;;;3.03;1.00;;;21.90;72.50;;;;;;5115774;28;20490;-67
2022/09/16 04:22:22;;;;;;;3.80;0.90;;;21.90;72.50;;;;;;5115805;28;20059;-67
2022/09/16 04:24:48;;;;;;;3.70;1.27;;;21.80;72.50;;;;;;5115681;28;20051;-67
2022/09/16 04:27:14;;;;;;;1.85;0.98;;;21.90;72.50;;;;;;5101403;28;20032;-67
2022/09/16 04:29:39;;;;;;;2.33;1.05;;;21.80;72.50;;;;;;5095182;28;20396;-68
2022/09/16 04:32:05;;;;;;;2.72;0.93;;;21.80;72.50;;;;;;5095201;28;20480;-67
2022/09/16 04:34:31;;;;;;;5.00;1.05;;;21.80;72.50;;;;;;5095210;28;20023;-67
2022/09/16 04:36:57;;;;;;;2.58;1.27;;;21.80;72.50;;;;;;5095270;28;20487;-67
2022/09/16 04:39:23;;;;;;;1.98;0.90;;;21.80;72.50;;;;;;5094998;28;20026;-67
2022/09/16 04:41:49;;;;;;;2.83;0.88;;;21.80;72.50;;;;;;5094987;28;20103;-67
2022/09/16 04:44:14;;;;;;;3.40;1.10;;;21.80;72.50;;;;;;5095058;28;20034;-67
2022/09/16 04:46:40;;;;;;;2.47;0.90;;;21.80;72.50;;;;;;5093677;28;20437;-68
2022/09/16 04:49:06;;;;;;;4.00;1.30;;;21.80;72.50;;;;;;5094495;28;20059;-67
2022/09/16 04:51:32;;;;;;;4.25;1.25;;;21.80;72.50;;;;;;5094905;28;20028;-67
2022/09/16 04:53:57;;;;;;;2.78;1.17;;;21.90;72.60;;;;;;5093343;28;20024;-68
2022/09/16 04:56:28;;;;;;;4.00;1.02;;;21.80;72.60;;;;;;5093490;28;20036;-68
2022/09/16 04:58:55;;;;;;;4.45;1.10;;;21.80;72.50;;;;;;5094294;28;20013;-67
2022/09/16 05:01:24;;;;;;;3.40;1.10;;;21.80;72.50;;;;;;5091706;28;20495;-67
2022/09/16 05:03:52;;;;;;;3.38;1.10;;;21.80;72.50;;;;;;5073206;28;20110;-67
2022/09/16 05:06:20;;;;;;;5.18;1.00;;;21.80;72.60;;;;;;5073125;28;20028;-67
2022/09/16 05:08:45;;;;;;;3.28;1.00;;;21.80;72.60;;;;;;5076196;28;20044;-67
2022/09/16 05:11:16;;;;;;;3.42;0.90;;;21.80;72.50;;;;;;5114635;28;20116;-67
2022/09/16 05:13:42;;;;;;;3.67;1.10;;;21.80;72.50;;;;;;5113625;28;20023;-68
2022/09/16 05:16:09;;;;;;;3.58;1.10;;;21.80;72.50;;;;;;5114862;28;20024;-67
2022/09/16 05:18:36;;;;;;;5.95;1.10;;;21.80;72.60;;;;;;5096868;28;20034;-67
2022/09/16 05:21:02;;;;;;;2.42;0.85;;;21.80;72.60;;;;;;5113349;28;20497;-67
2022/09/16 05:23:28;;;;;;;4.82;1.33;;;21.80;72.50;;;;;;5113297;28;20020;-67
2022/09/16 05:25:53;;;;;;;2.88;0.80;;;21.80;72.60;;;;;;5111355;28;20024;-67
2022/09/16 05:28:20;;;;;;;3.83;1.05;;;21.80;72.60;;;;;;5092836;28;20431;-67
2022/09/16 05:30:45;;;;;;;2.45;1.27;;;21.80;72.60;;;;;;5092963;28;20024;-68
2022/09/16 05:33:11;;;;;;;1.80;0.75;;;21.80;72.60;;;;;;5091665;28;20023;-67
2022/09/16 05:35:36;;;;;;;1.85;0.82;;;21.80;72.70;;;;;;5093989;28;20381;-67
2022/09/16 05:38:02;;;;;;;3.03;0.95;;;21.80;72.60;;;;;;5092563;28;20507;-67
2022/09/16 05:40:28;;;;;;;3.05;1.00;;;21.80;72.60;;;;;;5093731;28;20032;-67
2022/09/16 05:42:54;;;;;;;5.60;0.90;;;21.80;72.60;;;;;;5093740;28;20017;-67
2022/09/16 05:45:20;;;;;;;2.63;1.00;;;21.80;72.60;;;;;;5091958;28;20024;-67
2022/09/16 05:47:49;;;;;;;4.30;1.00;;;21.80;72.70;;;;;;5084098;28;20024;-67
2022/09/16 05:50:15;;;;;;;2.75;0.70;;;21.80;72.70;;;;;;5093457;28;20048;-67
2022/09/16 05:52:40;;;;;;;2.67;0.93;;;21.80;72.70;;;;;;5075356;28;20111;-67
2022/09/16 05:55:07;;;;;;;2.08;1.00;;;21.80;72.70;;;;;;5093506;28;20149;-67
2022/09/16 05:57:32;;;;;;;3.50;1.00;;;21.80;72.70;;;;;;5093814;28;20016;-67
2022/09/16 05:59:58;;;;;;;2.13;0.88;;;21.80;72.70;;;;;;5075424;28;20407;-67
2022/09/16 06:02:24;;;;;;;4.80;0.80;;;21.80;72.70;;;;;;5082119;28;20028;-67
2022/09/16 06:04:49;;;;;;;2.10;0.82;;;21.80;72.70;;;;;;5075621;28;20025;-67
2022/09/16 06:07:16;;;;;;;3.42;0.90;;;21.80;72.70;;;;;;5093202;28;20024;-67
2022/09/16 06:09:42;;;;;;;3.58;1.00;;;21.80;72.80;;;;;;5093388;28;20023;-67
2022/09/16 06:12:08;;;;;;;5.38;1.20;;;21.80;72.70;;;;;;5091731;28;20028;-67
2022/09/16 06:14:33;;;;;;;3.78;1.15;;;21.80;72.80;;;;;;5092154;28;20081;-68
2022/09/16 06:16:59;;;;;;;4.95;1.17;;;21.80;72.80;;;;;;5093132;28;20024;-67
2022/09/16 06:19:25;;;;;;;7.05;1.05;;;21.80;72.80;;;;;;5093187;28;20415;-68
2022/09/16 06:21:50;;;;;;;2.42;0.95;;;21.70;72.70;;;;;;5092929;28;20103;-67
2022/09/16 06:24:16;;;;;;;5.97;0.90;;;21.70;72.70;;;;;;5093061;28;20111;-67
2022/09/16 06:26:43;;;;;;;3.17;1.10;;;21.70;72.70;;;;;;5091953;28;20039;-68
2022/09/16 06:29:09;;;;;;;1.65;0.70;;;21.70;71.10;;;;;;5091564;28;20024;-68
2022/09/16 06:31:35;;;;;;;1.75;0.70;;;21.70;70.80;;;;;;5091803;28;20400;-68
2022/09/16 06:34:01;;;;;;;2.40;0.80;;;21.70;70.90;;;;;;5092918;28;20020;-68
2022/09/16 06:36:32;;;;;;;3.13;0.90;;;21.60;71.00;;;;;;5091374;28;20533;-68
2022/09/16 06:38:57;;;;;;;3.50;1.00;;;21.60;70.70;;;;;;5074638;28;20503;-67
2022/09/16 06:41:23;;;;;;;4.55;1.13;;;21.60;70.80;;;;;;5091414;28;20054;-67
2022/09/16 06:43:52;;;;;;;16.10;3.25;;;21.60;70.80;;;;;;5091273;28;20028;-67
2022/09/16 06:46:19;;;;;;;17.17;3.17;;;21.60;70.90;;;;;;5089909;28;20485;-67
2022/09/16 06:48:46;;;;;;;7.80;2.05;;;21.60;71.00;;;;;;5090101;28;20051;-68
2022/09/16 06:51:15;;;;;;;10.43;3.13;;;21.50;70.90;;;;;;5089993;28;20047;-67
2022/09/16 06:53:41;;;;;;;16.27;2.97;;;21.50;70.70;;;;;;5089940;28;20028;-68
2022/09/16 06:56:09;;;;;;;15.27;2.42;;;21.50;70.60;;;;;;5091023;28;20024;-67
2022/09/16 06:58:35;;;;;;;9.55;2.72;;;21.50;70.60;;;;;;5093928;28;20026;-68
2022/09/16 07:01:05;;;;;;;13.77;2.90;;;21.50;70.50;;;;;;5104008;28;20028;-68
2022/09/16 07:03:31;;;;;;;8.40;2.25;;;21.50;70.50;;;;;;5102539;28;20107;-68
2022/09/16 07:05:59;;;;;;;14.93;3.10;;;21.50;70.40;;;;;;5112770;28;20103;-67
2022/09/16 07:08:24;;;;;;;16.23;3.08;;;21.50;70.30;;;;;;5070965;28;20020;-67
2022/09/16 07:11:01;;;;;;;9.93;2.00;;;21.50;70.20;;;;;;5072263;28;20103;-68
2022/09/16 07:13:27;;;;;;;8.23;2.35;;;21.50;71.20;;;;;;5054772;28;20032;-68
2022/09/16 07:15:52;;;;;;;8.55;2.33;;;21.40;70.10;;;;;;5095097;28;20020;-68
2022/09/16 07:18:18;;;;;;;8.80;2.33;;;21.40;70.20;;;;;;5112397;28;20024;-67
2022/09/16 07:20:43;;;;;;;12.73;3.17;;;21.40;70.10;;;;;;5111582;28;20004;-68
2022/09/16 07:23:09;;;;;;;11.73;3.30;;;21.40;70.10;;;;;;5113820;28;20108;-68
2022/09/16 07:25:35;;;;;;;8.75;2.85;;;21.40;70.10;;;;;;5117184;28;20037;-68
2022/09/16 07:28:00;;;;;;;8.82;2.22;;;21.40;70.10;;;;;;5115719;28;20103;-68
2022/09/16 07:30:28;;;;;;;11.68;2.22;;;21.40;70.10;;;;;;5116767;28;20098;-68
2022/09/16 07:32:54;;;;;;;12.50;2.72;;;21.40;70.00;;;;;;5105423;28;20024;-68
2022/09/16 07:35:20;;;;;;;8.93;2.90;;;21.40;70.10;;;;;;5096113;28;20024;-67
2022/09/16 07:37:46;;;;;;;7.78;2.72;;;21.40;70.20;;;;;;5095192;28;20085;-68
2022/09/16 07:40:12;;;;;;;11.55;2.10;;;21.40;70.10;;;;;;5096214;28;20030;-68
2022/09/16 07:42:38;;;;;;;11.00;2.58;;;21.30;69.80;;;;;;5096153;28;20368;-67
2022/09/16 07:45:04;;;;;;;9.52;2.25;;;21.30;69.70;;;;;;5094894;28;20095;-67
2022/09/16 07:47:30;;;;;;;9.70;2.72;;;21.30;69.70;;;;;;5095821;28;20027;-68
2022/09/16 07:49:56;;;;;;;8.70;2.10;;;21.30;69.60;;;;;;5095832;28;20052;-67
2022/09/16 07:52:24;;;;;;;8.93;2.30;;;21.30;69.50;;;;;;5095902;28;20024;-68
2022/09/16 07:54:50;;;;;;;13.27;2.75;;;21.30;69.60;;;;;;5095922;28;20482;-68
2022/09/16 07:57:17;;;;;;;4.45;1.92;;;21.30;69.70;;;;;;5095944;28;20097;-68
2022/09/16 07:59:43;;;;;;;10.65;2.63;;;21.30;69.70;;;;;;5077322;28;20032;-67
2022/09/16 08:02:08;;;;;;;7.63;2.53;;;21.30;69.60;;;;;;5074290;28;20024;-68
2022/09/16 08:04:34;;;;;;;7.32;2.20;;;21.30;69.70;;;;;;5075375;28;20025;-67
2022/09/16 08:07:00;;;;;;;8.10;2.30;;;21.30;69.70;;;;;;5097032;28;20452;-68
2022/09/16 08:09:25;;;;;;;8.88;2.00;;;21.30;69.80;;;;;;5116215;28;20053;-68
2022/09/16 08:11:51;;;;;;;9.77;2.28;;;21.30;69.80;;;;;;5115963;28;20058;-67
2022/09/16 08:14:16;;;;;;;8.32;2.58;;;21.30;69.30;;;;;;5115849;28;20032;-68
2022/09/16 08:16:42;;;;;;;8.80;2.20;;;21.30;69.20;;;;;;5115752;28;20024;-67
2022/09/16 08:19:08;;;;;;;7.45;2.13;;;21.30;69.60;;;;;;5115943;28;20019;-67
2022/09/16 08:21:33;;;;;;;8.40;2.58;;;21.30;69.30;;;;;;5116090;28;20023;-68
2022/09/16 08:23:59;;;;;;;7.45;2.30;;;21.30;69.60;;;;;;5115764;28;20028;-67
2022/09/16 08:26:25;;;;;;;6.00;2.60;;;21.30;69.70;;;;;;5115693;28;20043;-68
2022/09/16 08:28:51;;;;;;;5.97;2.20;;;21.20;69.60;;;;;;5097609;28;20099;-68
2022/09/16 08:31:17;;;;;;;6.15;2.05;;;21.20;69.40;;;;;;5097262;28;20111;-68
2022/09/16 08:33:43;;;;;;;8.52;2.10;;;21.20;69.20;;;;;;5114303;28;20098;-68
2022/09/16 08:36:22;;;;;;;7.47;2.42;;;21.20;69.40;;;;;;5115483;28;20547;-67
2022/09/16 08:38:49;;;;;;;6.90;1.98;;;21.20;69.30;;;;;;5114506;28;20031;-67
2022/09/16 08:41:20;;;;;;;5.55;2.00;;;21.20;69.20;;;;;;5114123;28;20491;-67
2022/09/16 08:43:54;;;;;;;3.95;1.77;;;21.20;69.10;;;;;;5115444;28;20028;-67
2022/09/16 08:46:30;;;;;;;7.30;2.10;;;21.20;69.20;;;;;;5114050;28;20048;-67
2022/09/16 08:49:00;;;;;;;6.85;1.75;;;21.20;69.30;;;;;;5098274;28;20408;-68
2022/09/16 08:51:27;;;;;;;6.50;2.00;;;21.20;69.10;;;;;;5114105;28;20022;-67
2022/09/16 08:54:05;;;;;;;7.82;2.00;;;21.20;69.00;;;;;;5114098;28;20051;-68
2022/09/16 08:56:34;;;;;;;4.88;1.80;;;21.10;68.90;;;;;;5113833;28;20052;-67
2022/09/16 08:59:00;;;;;;;6.20;2.10;;;21.20;69.10;;;;;;5074900;28;20017;-67
2022/09/16 09:01:47;;;;;;;6.40;2.00;;;21.20;69.00;;;;;;5073231;28;20029;-67
2022/09/16 09:04:13;;;;;;;7.93;2.20;;;21.10;69.00;;;;;;5073370;28;20029;-68
2022/09/16 09:07:03;;;;;;;5.43;1.70;;;21.20;69.10;;;;;;5088730;28;20019;-67
2022/09/16 09:09:39;;;;;;;6.38;1.83;;;21.10;69.00;;;;;;5114915;28;20031;-68
2022/09/16 09:12:13;;;;;;;5.03;1.83;;;21.10;69.00;;;;;;5113681;28;20402;-68
2022/09/16 09:15:05;;;;;;;7.60;1.95;;;21.10;69.10;;;;;;5113487;28;20042;-67
2022/09/16 09:18:18;;;;;;;3.80;1.50;;;21.10;69.10;;;;;;5113816;28;20015;-67
2022/09/16 09:21:05;;;;;;;6.82;2.13;;;21.10;68.80;;;;;;5032024;28;20029;-68
2022/09/16 09:24:02;;;;;;;6.45;1.90;;;21.10;68.80;;;;;;5032203;28;20030;-67
2022/09/16 09:26:49;;;;;;;6.10;2.00;;;21.10;68.50;;;;;;4999654;28;20034;-68
2022/09/16 09:29:23;;;;;;;5.85;2.00;;;21.10;68.90;;;;;;5015002;28;20049;-68
2022/09/16 09:31:56;;;;;;;5.50;2.08;;;21.10;68.40;;;;;;5015836;28;20029;-68
2022/09/16 09:34:33;;;;;;;6.72;2.00;;;21.10;68.60;;;;;;5015226;28;20036;-68
2022/09/16 09:37:20;;;;;;;5.88;1.60;;;21.10;69.00;;;;;;5031940;28;20026;-68
2022/09/16 09:40:01;;;;;;;4.43;2.00;;;21.10;69.20;;;;;;5031616;28;20108;-68
2022/09/16 09:42:42;;;;;;;4.55;1.98;;;21.10;69.30;;;;;;5031390;28;20480;-68
2022/09/16 09:45:16;;;;;;;5.97;1.73;;;21.00;69.10;;;;;;5015282;28;20408;-68
2022/09/16 09:48:00;;;;;;;5.15;1.70;;;21.10;69.10;;;;;;5014984;28;20038;-68
2022/09/16 09:50:45;;;;;;;4.25;1.95;;;21.10;68.90;;;;;;5016949;28;20092;-68
2022/09/16 09:53:10;;;;;;;7.07;1.85;;;21.10;68.70;;;;;;5014961;28;20030;-68
2022/09/16 09:55:37;;;;;;;6.32;1.70;;;21.00;69.00;;;;;;5110001;28;20043;-68
2022/09/16 09:58:49;;;;;;;5.35;1.73;;;21.00;68.70;;;;;;5107265;28;20021;-69
2022/09/16 10:01:15;;;;;;;6.40;1.75;;;21.00;68.70;;;;;;5050971;28;20045;-68
2022/09/16 10:03:41;;;;;;;4.70;2.28;;;21.00;69.10;;;;;;5051135;28;20036;-68
2022/09/16 10:06:07;;;;;;;6.18;1.92;;;21.00;68.90;;;;;;5057587;28;20032;-68
2022/09/16 10:08:50;;;;;;;3.47;1.40;;;21.00;69.10;;;;;;5057724;28;20059;-68
2022/09/16 10:11:18;;;;;;;8.18;1.98;;;21.00;68.70;;;;;;5058789;28;20089;-68
2022/09/16 10:13:54;;;;;;;4.45;1.50;;;21.00;68.20;;;;;;5057486;28;20028;-68
2022/09/16 10:16:36;;;;;;;6.30;1.77;;;21.00;68.10;;;;;;5058373;28;20089;-68
2022/09/16 10:19:28;;;;;;;4.13;1.65;;;21.00;68.20;;;;;;5058547;28;20046;-68
2022/09/16 10:22:06;;;;;;;4.28;1.70;;;21.00;68.20;;;;;;5088168;28;20208;-68
2022/09/16 10:24:34;;;;;;;4.68;1.38;;;21.00;68.10;;;;;;5090789;28;20163;-68
2022/09/16 10:27:00;;;;;;;3.40;1.40;;;21.00;68.40;;;;;;5090621;28;20028;-68
2022/09/16 10:29:26;;;;;;;4.25;1.63;;;21.00;68.30;;;;;;5073951;28;20480;-68
2022/09/16 10:31:52;;;;;;;6.57;1.80;;;21.00;68.30;;;;;;5089197;28;20034;-68
2022/09/16 10:34:28;;;;;;;4.47;1.38;;;21.00;68.30;;;;;;5078160;28;20027;-68
2022/09/16 10:37:17;;;;;;;3.67;1.85;;;21.00;68.30;;;;;;5096209;28;20024;-68
2022/09/16 10:39:53;;;;;;;5.05;1.48;;;21.00;68.10;;;;;;5098870;28;20711;-68
2022/09/16 10:42:22;;;;;;;4.47;1.60;;;21.00;68.00;;;;;;5095375;28;20043;-68
2022/09/16 10:44:52;;;;;;;7.53;2.17;;;21.00;67.80;;;;;;5095286;28;20031;-68
2022/09/16 10:47:23;;;;;;;4.53;1.42;;;21.00;67.80;;;;;;5111960;28;20023;-68
2022/09/16 10:49:56;;;;;;;3.45;1.50;;;21.00;67.70;;;;;;5112950;28;20054;-68
2022/09/16 10:52:26;;;;;;;4.18;1.50;;;21.00;67.70;;;;;;5111611;28;20143;-68
2022/09/16 10:54:53;;;;;;;2.80;1.70;;;21.00;67.80;;;;;;5112012;28;20356;-68
2022/09/16 10:57:21;;;;;;;2.03;1.10;;;21.00;67.80;;;;;;5094098;28;20494;-68
2022/09/16 11:00:07;;;;;;;3.03;1.00;;;20.90;67.70;;;;;;5075913;28;20020;-68
2022/09/16 11:03:10;;;;;;;4.57;1.52;;;21.00;67.80;;;;;;5072346;28;20082;-68
2022/09/16 11:05:54;;;;;;;;;;;21.00;67.80;;;;;;5072571;28;20029;-68
2022/09/16 11:08:32;;;;;;;4.60;1.23;;;20.90;67.70;;;;;;5072170;28;19938;-68
2022/09/16 11:11:11;;;;;;;2.88;1.40;;;20.90;67.70;;;;;;5071764;28;20024;-68
2022/09/16 11:13:42;;;;;;;4.53;1.50;;;20.90;67.60;;;;;;5070950;28;20385;-68
2022/09/16 11:16:27;;;;;;;3.10;1.70;;;21.00;67.60;;;;;;5072329;28;20384;-68
2022/09/16 11:19:30;;;;;;;4.07;1.23;;;21.00;67.70;;;;;;5072236;28;20035;-68
2022/09/16 11:22:21;;;;;;;5.55;1.52;;;20.90;67.70;;;;;;5010267;28;20033;-68
2022/09/16 11:24:55;;;;;;;2.88;1.48;;;20.90;67.80;;;;;;4993955;28;20038;-68
2022/09/16 11:27:26;;;;;;;3.13;1.48;;;20.90;68.00;;;;;;5010375;28;20030;-68
2022/09/16 11:30:09;;;;;;;3.95;1.58;;;21.00;68.00;;;;;;5010324;28;20233;-68
2022/09/16 11:32:35;;;;;;;;;;;20.90;67.80;;;;;;4994272;28;20030;-68
2022/09/16 11:35:16;;;;;;;2.78;1.40;;;20.90;67.70;;;;;;5010418;28;20043;-68
2022/09/16 11:38:00;;;;;;;3.47;1.20;;;20.90;67.90;;;;;;5010235;28;20041;-68
2022/09/16 11:40:33;;;;;;;3.45;1.20;;;20.90;68.00;;;;;;5009960;28;20077;-68
2022/09/16 11:43:32;;;;;;;4.85;1.67;;;20.90;68.00;;;;;;4993895;28;20084;-68
2022/09/16 11:46:22;;;;;;;3.03;1.65;;;20.90;67.80;;;;;;5009960;28;20037;-68
2022/09/16 11:49:25;;;;;;;3.95;1.50;;;20.90;67.80;;;;;;4979137;28;20179;-68
2022/09/16 11:52:00;;;;;;;5.47;1.63;;;20.90;67.90;;;;;;5010029;28;20084;-68
2022/09/16 11:54:46;;;;;;;2.67;1.50;;;20.90;68.00;;;;;;4993387;28;20473;-68
2022/09/16 11:57:20;;;;;;;4.25;1.50;;;20.90;68.00;;;;;;5071759;28;20020;-68
2022/09/16 11:59:57;;;;;;;4.28;1.40;;;20.90;68.00;;;;;;5056585;28;20032;-68
2022/09/16 12:02:24;;;;;;;3.58;1.20;;;20.90;67.90;;;;;;5070676;28;20074;-68
2022/09/16 12:05:05;;;;;;;4.20;1.02;;;20.90;67.90;;;;;;5070654;28;20060;-68
2022/09/16 12:07:31;;;;;;;3.92;1.20;;;20.90;67.90;;;;;;5090264;28;20030;-68
2022/09/16 12:10:03;;;;;;;4.88;1.38;;;20.90;68.10;;;;;;5114533;28;20023;-68
2022/09/16 12:12:47;;;;;;;4.82;1.20;;;20.90;68.00;;;;;;5098453;28;20584;-68
2022/09/16 12:15:29;;;;;;;3.50;1.35;;;20.90;68.00;;;;;;5082824;28;20425;-68
2022/09/16 12:18:07;;;;;;;3.10;1.45;;;20.90;68.10;;;;;;5114717;28;20112;-68
2022/09/16 12:20:37;;;;;;;1.73;1.15;;;20.90;68.10;;;;;;5099256;28;20020;-68
2022/09/16 12:23:33;;;;;;;4.85;1.63;;;20.90;68.10;;;;;;5114651;28;20099;-68
2022/09/16 12:26:18;;;;;;;3.00;1.27;;;20.90;68.00;;;;;;5093969;28;20165;-68
2022/09/16 12:29:12;;;;;;;2.22;1.20;;;20.90;68.00;;;;;;5114737;28;20027;-68
2022/09/16 12:31:48;;;;;;;3.17;1.17;;;20.90;68.30;;;;;;5111021;28;20483;-68
2022/09/16 12:34:23;;;;;;;2.78;1.27;;;20.90;68.60;;;;;;5114510;28;20479;-68
2022/09/16 12:37:14;;;;;;;2.95;1.20;;;20.90;68.90;;;;;;5098721;28;20068;-68
2022/09/16 12:39:39;;;;;;;2.13;1.20;;;20.90;69.10;;;;;;5113872;28;20111;-68
2022/09/16 12:42:32;;;;;;;1.60;1.17;;;20.90;69.20;;;;;;5114464;28;20099;-68
2022/09/16 12:45:20;;;;;;;2.03;1.35;;;20.90;69.30;;;;;;5114318;28;20023;-68
2022/09/16 12:48:09;;;;;;;2.20;1.38;;;20.90;69.40;;;;;;5114339;28;20024;-68
2022/09/16 12:50:47;;;;;;;3.30;1.10;;;20.90;69.50;;;;;;5114130;28;20059;-69
2022/09/16 12:53:31;;;;;;;2.65;1.02;;;21.00;69.50;;;;;;5114977;28;20495;-68
2022/09/16 12:56:00;;;;;;;2.60;0.98;;;21.00;69.90;;;;;;5115158;28;20016;-68
2022/09/16 12:58:45;;;;;;;2.97;1.20;;;20.90;69.90;;;;;;5101880;28;20035;-68
2022/09/16 13:01:24;;;;;;;4.75;1.50;;;20.90;69.80;;;;;;5074467;28;20021;-68
2022/09/16 13:04:07;;;;;;;2.08;1.30;;;21.00;70.10;;;;;;5073335;28;20025;-68
2022/09/16 13:06:34;;;;;;;3.35;1.13;;;21.00;70.10;;;;;;5086812;28;20016;-68
2022/09/16 13:09:19;;;;;;;2.80;1.30;;;20.90;70.00;;;;;;5113719;28;20024;-68
2022/09/16 13:11:58;;;;;;;4.35;1.20;;;21.00;70.10;;;;;;5114703;28;20140;-68
2022/09/16 13:14:47;;;;;;;1.60;1.00;;;21.00;70.10;;;;;;5114890;27;20016;-68